Time;durP1;ratioP1;P1;durP2;ratioP2;P2;SDS_P1;SDS_P2;PMS_P1;PMS_P2;Temp;Humidity;BMP_temperature;BMP_pressure;BME280_temperature;BME280_humidity;BME280_pressure;Samples;Min_cycle;Max_cycle;Signal;HPM_P1;HPM_P2
2023/05/27 00:01:46;;;;;;;1999.90;999.90;;;17.30;99.90;;;;;;5053028;28;20021;-81
2023/05/27 00:04:12;;;;;;;1999.90;999.90;;;17.30;99.90;;;;;;5068260;28;20078;-72
2023/05/27 00:06:38;;;;;;;1999.90;999.90;;;17.30;99.90;;;;;;5073846;28;20430;-72
2023/05/27 00:09:04;;;;;;;1999.90;999.90;;;17.20;99.90;;;;;;5072557;28;20048;-82
2023/05/27 00:11:30;;;;;;;1999.90;999.90;;;17.20;99.90;;;;;;5073635;28;20024;-81
2023/05/27 00:13:55;;;;;;;1999.90;999.90;;;17.20;99.90;;;;;;5072502;28;20042;-72
2023/05/27 00:16:21;;;;;;;1999.90;999.90;;;17.10;99.90;;;;;;5069497;28;20087;-72
2023/05/27 00:18:47;;;;;;;1999.90;999.90;;;17.10;99.90;;;;;;5052788;28;20112;-81
2023/05/27 00:21:13;;;;;;;1999.90;999.90;;;17.10;99.90;;;;;;5053415;28;20053;-80
2023/05/27 00:23:39;;;;;;;1999.90;999.90;;;17.00;99.90;;;;;;5053373;28;20033;-73
2023/05/27 00:26:05;;;;;;;1999.90;999.90;;;17.00;99.90;;;;;;5053233;28;20385;-81
2023/05/27 00:28:31;;;;;;;1999.90;999.90;;;16.90;99.90;;;;;;5053252;28;20036;-72
2023/05/27 00:30:57;;;;;;;1999.90;999.90;;;16.90;99.90;;;;;;5053420;28;20381;-81
2023/05/27 00:33:23;;;;;;;1999.90;999.90;;;16.80;99.90;;;;;;5053372;28;20029;-72
2023/05/27 00:35:49;;;;;;;1999.90;999.90;;;16.80;99.90;;;;;;5052546;28;20082;-81
2023/05/27 00:38:14;;;;;;;1999.90;999.90;;;16.70;99.90;;;;;;5053149;28;20110;-81
2023/05/27 00:40:40;;;;;;;1999.90;999.90;;;16.70;99.90;;;;;;5053190;28;20114;-73
2023/05/27 00:43:06;;;;;;;1999.90;999.90;;;16.70;99.90;;;;;;5053174;28;20025;-72
2023/05/27 00:45:32;;;;;;;1999.90;999.90;;;16.60;99.90;;;;;;5053226;28;20033;-81
2023/05/27 00:48:01;;;;;;;1999.90;999.90;;;16.60;99.90;;;;;;5052796;28;20033;-73
2023/05/27 00:50:27;;;;;;;1999.90;999.90;;;16.50;99.90;;;;;;5053044;28;20029;-81
2023/05/27 00:52:55;;;;;;;1999.90;999.90;;;16.40;99.90;;;;;;5053291;28;20028;-72
2023/05/27 00:55:21;;;;;;;1999.90;999.90;;;16.30;99.90;;;;;;5053159;28;20445;-74
2023/05/27 00:57:47;;;;;;;1999.90;999.90;;;16.30;99.90;;;;;;5052949;28;20028;-81
2023/05/27 01:00:13;;;;;;;1999.90;999.90;;;16.30;99.90;;;;;;5052804;28;20468;-73
2023/05/27 01:02:40;;;;;;;1999.90;999.90;;;16.20;99.90;;;;;;5054355;28;20454;-81
2023/05/27 01:05:10;;;;;;;1999.90;999.90;;;16.20;99.90;;;;;;5071613;28;20070;-81
2023/05/27 01:07:50;;;;;;;1999.90;999.90;;;16.20;99.90;;;;;;5072531;28;20044;-73
2023/05/27 01:10:35;;;;;;;1999.90;999.90;;;16.20;99.90;;;;;;5051714;28;20500;-81
2023/05/27 01:13:22;;;;;;;1999.90;999.90;;;16.20;99.90;;;;;;5052875;28;20027;-81
2023/05/27 01:15:51;;;;;;;1999.90;999.90;;;16.10;99.90;;;;;;5052058;28;20029;-81
2023/05/27 01:18:18;;;;;;;1999.90;999.90;;;16.00;99.90;;;;;;5072131;28;20487;-72
2023/05/27 01:20:47;;;;;;;1999.90;999.90;;;16.10;99.90;;;;;;5072807;28;20066;-72
2023/05/27 01:23:13;;;;;;;1999.90;999.90;;;16.00;99.90;;;;;;5072399;28;20035;-81
2023/05/27 01:25:39;;;;;;;1999.90;999.90;;;16.00;99.90;;;;;;5071832;28;20031;-81
2023/05/27 01:28:05;;;;;;;1999.90;999.90;;;16.00;99.90;;;;;;5072517;28;20495;-81
2023/05/27 01:30:31;;;;;;;1999.90;999.90;;;15.90;99.90;;;;;;5072501;28;20032;-81
2023/05/27 01:33:07;;;;;;;1999.90;999.90;;;15.90;99.90;;;;;;5072589;28;20522;-72
2023/05/27 01:35:48;;;;;;;1999.90;999.90;;;15.90;99.90;;;;;;5072655;28;20158;-81
2023/05/27 01:38:17;;;;;;;1999.90;999.90;;;15.90;99.90;;;;;;5072181;28;20123;-81
2023/05/27 01:40:45;;;;;;;1999.90;999.90;;;15.90;99.90;;;;;;5072503;28;20063;-81
2023/05/27 01:43:13;;;;;;;1999.90;999.90;;;16.00;99.90;;;;;;5072555;28;20020;-81
2023/05/27 01:45:39;;;;;;;1999.90;999.90;;;16.00;99.90;;;;;;5072439;28;20028;-72
2023/05/27 01:48:05;;;;;;;1999.90;999.90;;;16.00;99.90;;;;;;5076051;28;20029;-72
2023/05/27 01:50:31;;;;;;;1999.90;999.90;;;16.00;99.90;;;;;;5076160;28;20062;-81
2023/05/27 01:52:57;;;;;;;1999.90;999.90;;;16.00;99.90;;;;;;5067892;28;20029;-81
2023/05/27 01:55:23;;;;;;;1999.90;999.90;;;16.00;99.90;;;;;;5076205;28;20044;-81
2023/05/27 01:57:48;;;;;;;1999.90;999.90;;;16.00;99.90;;;;;;5076048;28;20033;-72
2023/05/27 02:00:15;;;;;;;1999.90;999.90;;;16.00;99.90;;;;;;5075918;28;20020;-72
2023/05/27 02:02:41;;;;;;;1999.90;999.90;;;15.90;99.90;;;;;;5075866;28;20020;-81
2023/05/27 02:05:07;;;;;;;1999.90;999.90;;;15.90;99.90;;;;;;5075978;28;20024;-81
2023/05/27 02:07:33;;;;;;;1999.90;999.90;;;16.00;99.90;;;;;;5075797;28;20059;-81
2023/05/27 02:09:58;;;;;;;1999.90;999.90;;;16.00;99.90;;;;;;5074564;28;20067;-81
2023/05/27 02:12:24;;;;;;;1999.90;999.90;;;15.90;99.90;;;;;;5075743;28;20392;-72
2023/05/27 02:14:51;;;;;;;1999.90;999.90;;;16.00;99.90;;;;;;5075901;28;20028;-81
2023/05/27 02:17:16;;;;;;;1999.90;999.90;;;16.00;99.90;;;;;;5064293;28;20392;-80
2023/05/27 02:19:42;;;;;;;1999.90;999.90;;;16.00;99.90;;;;;;5055685;28;20047;-81
2023/05/27 02:22:08;;;;;;;1999.90;999.90;;;15.90;99.90;;;;;;5055686;28;20021;-81
2023/05/27 02:24:33;;;;;;;1999.90;999.90;;;15.90;99.90;;;;;;5075531;28;20028;-72
2023/05/27 02:27:01;;;;;;;1999.90;999.90;;;15.90;99.90;;;;;;5075696;28;20059;-72
2023/05/27 02:29:26;;;;;;;1999.90;999.90;;;15.90;99.90;;;;;;5075735;28;20067;-81
2023/05/27 02:31:52;;;;;;;1999.90;999.90;;;15.80;99.90;;;;;;5075451;28;20444;-80
2023/05/27 02:34:18;;;;;;;1999.90;999.90;;;15.80;99.90;;;;;;5075366;28;20033;-80
2023/05/27 02:36:43;;;;;;;1999.90;999.90;;;15.80;99.90;;;;;;5057547;28;20021;-72
2023/05/27 02:39:10;;;;;;;1999.90;999.90;;;15.80;99.90;;;;;;5075251;28;20036;-72
2023/05/27 02:41:36;;;;;;;1999.90;999.90;;;15.70;99.90;;;;;;5075623;28;20017;-81
2023/05/27 02:44:02;;;;;;;1999.90;999.90;;;15.70;99.90;;;;;;5075221;28;20399;-81
2023/05/27 02:46:28;;;;;;;1999.90;999.90;;;15.70;99.90;;;;;;5075297;28;20393;-81
2023/05/27 02:48:54;;;;;;;1999.90;999.90;;;15.60;99.90;;;;;;5075124;28;20511;-81
2023/05/27 02:51:22;;;;;;;1999.90;999.90;;;15.60;99.90;;;;;;5075490;28;20104;-72
2023/05/27 02:53:48;;;;;;;1999.90;999.90;;;15.60;99.90;;;;;;5075534;28;20122;-72
2023/05/27 02:56:13;;;;;;;1999.90;999.90;;;15.50;99.90;;;;;;5075038;28;20033;-81
2023/05/27 02:58:39;;;;;;;1999.90;999.90;;;15.50;99.90;;;;;;5074580;28;20036;-81
2023/05/27 03:01:05;;;;;;;1999.90;999.90;;;15.40;99.90;;;;;;5074818;28;20021;-81
2023/05/27 03:03:30;;;;;;;1999.90;999.90;;;15.40;99.90;;;;;;5074854;28;20081;-72
2023/05/27 03:05:56;;;;;;;1999.90;999.90;;;15.40;99.90;;;;;;5074909;28;20021;-81
2023/05/27 03:08:22;;;;;;;1999.90;999.90;;;15.30;99.90;;;;;;5074669;28;20415;-80
2023/05/27 03:10:47;;;;;;;1999.90;999.90;;;15.30;99.90;;;;;;5073898;28;20036;-81
2023/05/27 03:13:13;;;;;;;1999.90;999.90;;;15.30;99.90;;;;;;5074463;28;20033;-81
2023/05/27 03:15:39;;;;;;;1999.90;999.90;;;15.30;99.90;;;;;;5074740;28;20030;-80
2023/05/27 03:18:05;;;;;;;1999.90;999.90;;;15.20;99.90;;;;;;5074538;28;20020;-72
2023/05/27 03:20:30;;;;;;;1999.90;999.90;;;15.20;99.90;;;;;;5074603;28;20043;-81
2023/05/27 03:22:56;;;;;;;1999.90;999.90;;;15.20;99.90;;;;;;5074891;28;20028;-81
2023/05/27 03:25:22;;;;;;;1999.90;999.90;;;15.20;99.90;;;;;;5074542;28;20017;-81
2023/05/27 03:27:48;;;;;;;1999.90;999.90;;;15.20;99.90;;;;;;5074457;28;20024;-81
2023/05/27 03:30:14;;;;;;;1999.90;999.90;;;15.10;99.90;;;;;;5074482;28;20392;-72
2023/05/27 03:32:39;;;;;;;1999.90;999.90;;;15.10;99.90;;;;;;5074382;28;20083;-81
2023/05/27 03:35:05;;;;;;;1999.90;999.90;;;15.10;99.90;;;;;;5074688;28;20033;-81
2023/05/27 03:37:31;;;;;;;1999.90;999.90;;;15.00;99.90;;;;;;5074139;28;20064;-81
2023/05/27 03:39:57;;;;;;;1999.90;999.90;;;15.00;99.90;;;;;;5056097;28;20060;-81
2023/05/27 03:42:23;;;;;;;1999.90;999.90;;;15.00;99.90;;;;;;5074196;28;20024;-72
2023/05/27 03:44:49;;;;;;;1999.90;999.90;;;15.00;99.90;;;;;;5074342;28;20039;-72
2023/05/27 03:47:17;;;;;;;1999.90;999.90;;;15.00;99.90;;;;;;5073888;28;20024;-81
2023/05/27 03:49:43;;;;;;;1999.90;999.90;;;14.90;99.90;;;;;;5073778;28;20046;-81
2023/05/27 03:52:09;;;;;;;1999.90;999.90;;;14.90;99.90;;;;;;5074408;28;20369;-81
2023/05/27 03:54:34;;;;;;;1999.90;999.90;;;14.90;99.90;;;;;;5073948;28;20495;-72
2023/05/27 03:57:01;;;;;;;1999.90;999.90;;;14.80;99.90;;;;;;5055795;28;20028;-72
2023/05/27 03:59:26;;;;;;;1999.90;999.90;;;14.80;99.90;;;;;;5073897;28;20024;-81
2023/05/27 04:01:52;;;;;;;1999.90;999.90;;;14.80;99.90;;;;;;5073423;28;20471;-81
2023/05/27 04:04:18;;;;;;;1999.90;999.90;;;14.70;99.90;;;;;;5073709;28;20051;-81
2023/05/27 04:06:44;;;;;;;1999.90;999.90;;;14.70;99.90;;;;;;5073718;28;20104;-81
2023/05/27 04:09:09;;;;;;;1999.90;999.90;;;14.70;99.90;;;;;;5072140;28;20555;-72
2023/05/27 04:11:35;;;;;;;1999.90;999.90;;;14.60;99.90;;;;;;5072255;28;20025;-73
2023/05/27 04:14:01;;;;;;;1999.90;999.90;;;14.60;99.90;;;;;;5073581;28;20411;-80
2023/05/27 04:16:26;;;;;;;1999.90;999.90;;;14.60;99.90;;;;;;5068878;28;20503;-80
2023/05/27 04:18:52;;;;;;;1999.90;999.90;;;14.50;99.90;;;;;;5073158;28;20383;-81
2023/05/27 04:21:18;;;;;;;1999.90;999.90;;;14.50;99.90;;;;;;5054684;28;20020;-73
2023/05/27 04:23:44;;;;;;;1999.90;999.90;;;14.50;99.90;;;;;;5073304;28;20379;-72
2023/05/27 04:26:10;;;;;;;1999.90;999.90;;;14.50;99.90;;;;;;5073167;28;20486;-80
2023/05/27 04:28:38;;;;;;;1999.90;999.90;;;14.50;99.90;;;;;;5073629;28;20028;-80
2023/05/27 04:31:05;;;;;;;1999.90;999.90;;;14.50;99.90;;;;;;5073302;28;20048;-81
2023/05/27 04:33:30;;;;;;;1999.90;999.90;;;14.50;99.90;;;;;;5073334;28;20024;-72
2023/05/27 04:35:56;;;;;;;1999.90;999.90;;;14.50;99.90;;;;;;5072790;28;20078;-72
2023/05/27 04:38:22;;;;;;;1999.90;999.90;;;14.60;99.90;;;;;;5072901;28;20033;-81
2023/05/27 04:40:52;;;;;;;1999.90;999.90;;;14.60;99.90;;;;;;5073027;28;20368;-81
2023/05/27 04:43:18;;;;;;;1999.90;999.90;;;14.60;99.90;;;;;;5073242;28;20027;-72
2023/05/27 04:45:45;;;;;;;1999.90;999.90;;;14.60;99.90;;;;;;5072490;28;20032;-72
2023/05/27 04:48:11;;;;;;;1999.90;999.90;;;14.60;99.90;;;;;;5072968;28;20103;-72
2023/05/27 04:50:37;;;;;;;1999.90;999.90;;;14.60;99.90;;;;;;5072997;28;20504;-81
2023/05/27 04:53:02;;;;;;;1999.90;999.90;;;14.60;99.90;;;;;;5073226;28;20060;-81
2023/05/27 04:55:28;;;;;;;1999.90;999.90;;;14.70;99.90;;;;;;5070795;28;20064;-81
2023/05/27 04:57:56;;;;;;;1999.90;999.90;;;14.70;99.90;;;;;;5072741;28;20029;-81
2023/05/27 05:00:38;;;;;;;1999.90;999.90;;;14.80;99.90;;;;;;5072720;28;20043;-72
2023/05/27 05:03:08;;;;;;;1999.90;999.90;;;14.80;99.90;;;;;;5072557;28;20025;-73
2023/05/27 05:05:34;;;;;;;1999.90;999.90;;;14.90;99.90;;;;;;5072954;28;20029;-81
2023/05/27 05:08:00;;;;;;;1999.90;999.90;;;14.90;99.90;;;;;;5072600;28;20056;-81
2023/05/27 05:10:26;;;;;;;1999.90;999.90;;;15.00;99.90;;;;;;5072781;28;20036;-81
2023/05/27 05:12:52;;;;;;;1999.90;999.90;;;15.00;99.90;;;;;;5071924;28;20021;-73
2023/05/27 05:15:17;;;;;;;1999.90;999.90;;;15.00;99.90;;;;;;5072834;28;20033;-72
2023/05/27 05:17:43;;;;;;;1999.90;999.90;;;15.00;99.90;;;;;;5057234;28;20104;-80
2023/05/27 05:20:10;;;;;;;1999.90;999.90;;;15.10;99.90;;;;;;5052488;28;20028;-81
2023/05/27 05:22:35;;;;;;;1999.90;999.90;;;15.20;99.90;;;;;;5058102;28;20044;-81
2023/05/27 05:25:01;;;;;;;1999.90;999.90;;;15.20;99.90;;;;;;5059405;28;20488;-81
2023/05/27 05:27:27;;;;;;;1999.90;999.90;;;15.30;99.90;;;;;;5059412;28;20036;-81
2023/05/27 05:29:53;;;;;;;1999.90;999.90;;;15.30;99.90;;;;;;5059049;28;20391;-81
2023/05/27 05:32:19;;;;;;;1999.90;999.90;;;15.40;99.90;;;;;;5059049;28;20025;-80
2023/05/27 05:34:44;;;;;;;1999.90;999.90;;;15.40;99.90;;;;;;5059396;28;20029;-80
2023/05/27 05:37:13;;;;;;;1999.90;999.90;;;15.50;99.90;;;;;;5058966;28;20025;-80
2023/05/27 05:39:42;;;;;;;1999.90;999.90;;;15.50;99.90;;;;;;5059249;28;20139;-72
2023/05/27 05:42:07;;;;;;;1999.90;999.90;;;15.60;99.90;;;;;;5059067;28;20027;-72
2023/05/27 05:44:34;;;;;;;1999.90;999.90;;;15.60;99.90;;;;;;5059201;28;20454;-81
2023/05/27 05:47:00;;;;;;;1999.90;999.90;;;15.70;99.90;;;;;;5059163;28;20603;-81
2023/05/27 05:49:25;;;;;;;1999.90;999.90;;;15.70;99.90;;;;;;5058848;28;20064;-81
2023/05/27 05:51:51;;;;;;;1999.90;999.90;;;15.80;99.90;;;;;;5059112;28;20075;-81
2023/05/27 05:54:16;;;;;;;1999.90;999.90;;;15.90;99.90;;;;;;5058953;28;20392;-72
2023/05/27 05:56:42;;;;;;;1999.90;999.90;;;15.90;99.90;;;;;;5058934;28;20029;-81
2023/05/27 05:59:07;;;;;;;1999.90;999.90;;;16.00;99.90;;;;;;5058933;28;20053;-81
2023/05/27 06:01:33;;;;;;;1999.90;999.90;;;16.10;99.90;;;;;;5058904;28;20025;-81
2023/05/27 06:04:03;;;;;;;1999.90;999.90;;;16.10;99.90;;;;;;5071633;28;20035;-81
2023/05/27 06:06:30;;;;;;;1999.90;999.90;;;16.20;99.90;;;;;;5078870;28;20021;-81
2023/05/27 06:08:55;;;;;;;1999.90;999.90;;;16.30;99.90;;;;;;5078580;28;20105;-81
2023/05/27 06:11:21;;;;;;;1999.90;999.90;;;16.30;99.90;;;;;;5079094;28;20115;-81
2023/05/27 06:13:47;;;;;;;1999.90;999.90;;;16.40;99.90;;;;;;5078023;28;20056;-81
2023/05/27 06:16:13;;;;;;;1999.90;999.90;;;16.50;99.90;;;;;;5075916;28;20039;-72
2023/05/27 06:18:38;;;;;;;1999.90;999.90;;;16.50;99.90;;;;;;5058690;28;20033;-72
2023/05/27 06:21:04;;;;;;;1999.90;999.90;;;16.60;99.90;;;;;;5078790;28;20027;-72
2023/05/27 06:23:30;;;;;;;1999.90;999.90;;;16.70;99.90;;;;;;5078926;28;20102;-81
2023/05/27 06:25:55;;;;;;;1999.90;999.90;;;16.70;99.90;;;;;;5078639;28;20036;-80
2023/05/27 06:28:21;;;;;;;1999.90;999.90;;;16.80;99.90;;;;;;5079126;28;20078;-81
2023/05/27 06:30:46;;;;;;;1999.90;999.90;;;16.80;99.90;;;;;;5078799;28;20561;-72
2023/05/27 06:33:12;;;;;;;1999.90;999.90;;;16.90;99.90;;;;;;5076248;28;20027;-72
2023/05/27 06:35:37;;;;;;;1999.90;999.90;;;17.00;99.90;;;;;;5075703;28;20028;-81
2023/05/27 06:38:03;;;;;;;1999.90;999.90;;;17.10;99.90;;;;;;5075335;28;20072;-81
2023/05/27 06:40:29;;;;;;;1999.90;999.90;;;17.20;99.90;;;;;;5075424;28;20024;-81
2023/05/27 06:42:54;;;;;;;1999.90;999.90;;;17.30;99.90;;;;;;5075566;28;20078;-81
2023/05/27 06:45:20;;;;;;;1999.90;999.90;;;17.40;99.90;;;;;;5075435;28;20558;-73
2023/05/27 06:47:46;;;;;;;1999.90;999.90;;;17.50;99.90;;;;;;5057406;28;20037;-81
2023/05/27 06:50:11;;;;;;;1999.90;999.90;;;17.60;99.90;;;;;;5075298;28;20027;-81
2023/05/27 06:52:37;;;;;;;1999.90;999.90;;;17.70;99.90;;;;;;5075503;28;20056;-81
2023/05/27 06:55:03;;;;;;;1999.90;999.90;;;17.80;99.90;;;;;;5075228;28;20155;-81
2023/05/27 06:57:28;;;;;;;1999.90;999.90;;;17.90;99.90;;;;;;5075105;28;20464;-81
2023/05/27 06:59:55;;;;;;;1999.90;999.90;;;18.00;99.90;;;;;;5074919;28;20056;-73
2023/05/27 07:02:21;;;;;;;1999.90;999.90;;;18.10;99.90;;;;;;5074797;28;20533;-81
2023/05/27 07:04:47;;;;;;;1999.90;999.90;;;18.20;99.90;;;;;;5074538;28;20024;-72
2023/05/27 07:07:12;;;;;;;1999.90;999.90;;;18.30;99.90;;;;;;5056796;28;20085;-81
2023/05/27 07:09:38;;;;;;;1999.90;999.90;;;18.40;99.90;;;;;;5074735;28;20040;-73
2023/05/27 07:12:06;;;;;;;1999.90;999.90;;;18.50;99.90;;;;;;5074936;28;20035;-72
2023/05/27 07:14:31;;;;;;;1999.90;999.90;;;18.60;99.90;;;;;;5074018;28;20023;-81
2023/05/27 07:16:57;;;;;;;1999.90;999.90;;;18.80;99.90;;;;;;5066157;28;20408;-81
2023/05/27 07:19:23;;;;;;;1999.90;999.90;;;19.00;99.90;;;;;;5054630;28;20519;-81
2023/05/27 07:21:48;;;;;;;1999.90;999.90;;;19.20;99.90;;;;;;5054574;28;20543;-73
2023/05/27 07:24:14;;;;;;;1999.90;999.90;;;19.20;99.90;;;;;;5054479;28;20025;-73
2023/05/27 07:26:40;;;;;;;1999.90;999.90;;;19.40;99.90;;;;;;5053848;28;20025;-81
2023/05/27 07:29:05;;;;;;;1999.90;999.90;;;19.40;99.90;;;;;;5054752;28;20029;-73
2023/05/27 07:31:31;;;;;;;1999.90;999.90;;;19.70;99.90;;;;;;5066014;28;20033;-82
2023/05/27 07:33:57;;;;;;;1999.90;999.90;;;20.30;99.90;;;;;;5056216;28;20078;-82
2023/05/27 07:36:23;;;;;;;1999.90;999.90;;;22.10;99.90;;;;;;5074218;28;20036;-73
2023/05/27 07:38:48;;;;;;;1999.90;999.90;;;23.60;99.90;;;;;;5074102;28;20021;-73
2023/05/27 07:41:14;;;;;;;1999.90;999.90;;;24.50;99.90;;;;;;5074594;28;20024;-82
2023/05/27 07:43:40;;;;;;;1999.90;999.90;;;25.20;99.90;;;;;;5074187;28;20541;-81
2023/05/27 07:46:05;;;;;;;1999.90;999.90;;;25.70;99.90;;;;;;5073915;28;20020;-82
2023/05/27 07:48:31;;;;;;;1999.90;999.90;;;26.30;99.90;;;;;;5073825;28;20395;-82
2023/05/27 07:50:57;;;;;;;1999.90;999.90;;;27.00;99.90;;;;;;5074136;28;20043;-73
2023/05/27 07:53:22;;;;;;;1999.90;999.90;;;27.30;99.90;;;;;;5074443;28;20029;-82
2023/05/27 07:55:48;;;;;;;1999.90;999.90;;;28.00;99.90;;;;;;5073743;28;20036;-81
2023/05/27 07:58:14;;;;;;;1999.90;999.90;;;28.30;99.90;;;;;;5073786;28;20033;-80
2023/05/27 08:00:39;;;;;;;1999.90;999.90;;;28.60;99.90;;;;;;5073569;28;20510;-80
2023/05/27 08:03:05;;;;;;;1999.90;999.90;;;28.50;99.90;;;;;;5073515;28;20095;-72
2023/05/27 08:05:32;;;;;;;1999.90;999.90;;;28.40;99.90;;;;;;5073605;28;20027;-81
2023/05/27 08:07:58;;;;;;;1999.90;999.90;;;29.20;99.90;;;;;;5073470;28;20055;-81
2023/05/27 08:10:23;;;;;;;1999.90;999.90;;;29.10;99.90;;;;;;5073190;28;20036;-81
2023/05/27 08:12:49;;;;;;;1999.90;999.90;;;29.20;99.90;;;;;;5073974;28;20083;-72
2023/05/27 08:15:15;;;;;;;1999.90;999.90;;;29.40;99.90;;;;;;5072444;28;20032;-81
2023/05/27 08:17:42;;;;;;;1999.90;999.90;;;30.00;99.90;;;;;;5058691;28;20411;-72
2023/05/27 08:20:08;;;;;;;1999.90;999.90;;;30.30;99.90;;;;;;5073405;28;20086;-80
2023/05/27 08:22:33;;;;;;;1999.90;999.90;;;30.40;99.90;;;;;;5073427;28;20021;-81
2023/05/27 08:24:59;;;;;;;1999.90;999.90;;;31.00;99.90;;;;;;5073587;28;20403;-81
2023/05/27 08:27:51;;;;;;;1999.90;999.90;;;31.10;98.90;;;;;;5073473;28;20400;-81
2023/05/27 08:30:17;;;;;;;1999.90;999.90;;;30.80;99.20;;;;;;5073518;28;20032;-72
2023/05/27 08:32:43;;;;;;;1999.90;999.90;;;31.00;99.30;;;;;;5073094;28;20124;-82
2023/05/27 08:35:10;;;;;;;1999.90;999.90;;;31.50;99.20;;;;;;5073183;28;20506;-82
2023/05/27 08:37:35;;;;;;;1999.90;999.90;;;32.00;98.60;;;;;;5073400;28;20060;-82
2023/05/27 08:40:01;;;;;;;1999.90;999.90;;;32.10;97.90;;;;;;5073115;28;20029;-82
2023/05/27 08:42:27;;;;;;;1999.90;999.90;;;32.40;97.30;;;;;;5073323;28;20439;-72
2023/05/27 08:44:52;;;;;;;1999.90;999.90;;;32.30;97.40;;;;;;5073345;28;20078;-72
2023/05/27 08:47:19;;;;;;;1999.90;999.90;;;32.90;97.40;;;;;;5073023;28;20023;-81
2023/05/27 08:49:45;;;;;;;1999.90;999.90;;;33.30;96.30;;;;;;5073060;28;20028;-81
2023/05/27 08:52:11;;;;;;;1999.90;999.90;;;33.00;95.80;;;;;;5073170;28;20037;-81
2023/05/27 08:54:37;;;;;;;1999.90;999.90;;;33.00;96.50;;;;;;5072953;28;20082;-82
2023/05/27 08:57:07;;;;;;;1999.90;999.90;;;32.80;96.50;;;;;;5072714;28;20059;-72
2023/05/27 08:59:34;;;;;;;1999.90;999.90;;;32.90;96.70;;;;;;5072734;28;20094;-82
2023/05/27 09:02:00;;;;;;;1999.90;999.90;;;33.10;96.40;;;;;;5072822;28;20483;-82
2023/05/27 09:04:26;;;;;;;1999.90;999.90;;;33.60;95.90;;;;;;5072531;28;20047;-81
2023/05/27 09:06:52;;;;;;;1999.90;999.90;;;34.00;96.50;;;;;;5072658;28;20019;-73
2023/05/27 09:09:18;;;;;;;1999.90;999.90;;;33.40;95.10;;;;;;5072749;28;20016;-72
2023/05/27 09:11:44;;;;;;;1999.90;999.90;;;33.50;95.80;;;;;;5072638;28;20483;-82
2023/05/27 09:14:22;;;;;;;1999.90;999.90;;;33.60;95.60;;;;;;5072887;28;20078;-82
2023/05/27 09:16:48;;;;;;;1999.90;999.90;;;33.40;95.30;;;;;;5071856;28;20021;-82
2023/05/27 09:19:20;;;;;;;1999.90;999.90;;;34.20;95.30;;;;;;5072711;28;20070;-82
2023/05/27 09:21:46;;;;;;;1999.90;999.90;;;33.80;95.40;;;;;;5072670;28;20360;-72
2023/05/27 09:24:11;;;;;;;1999.90;999.90;;;34.60;95.00;;;;;;5072594;28;20029;-82
2023/05/27 09:26:38;;;;;;;1999.90;999.90;;;34.30;94.70;;;;;;5072646;28;20506;-82
2023/05/27 09:29:07;;;;;;;1999.90;999.90;;;33.80;95.20;;;;;;5072879;28;20035;-82
2023/05/27 09:31:40;;;;;;;1999.90;999.90;;;34.10;95.40;;;;;;5072553;28;20504;-82
2023/05/27 09:34:16;;;;;;;1999.90;999.90;;;33.80;94.80;;;;;;5072324;28;20482;-72
2023/05/27 09:36:43;;;;;;;1999.90;999.90;;;34.00;95.20;;;;;;5072412;28;20036;-82
2023/05/27 09:39:10;;;;;;;1999.90;999.90;;;33.80;95.30;;;;;;5072385;28;20404;-73
2023/05/27 09:41:37;;;;;;;1999.90;999.90;;;34.30;95.50;;;;;;5072675;28;20095;-82
2023/05/27 09:44:05;;;;;;;1999.90;999.90;;;34.10;95.60;;;;;;5072516;28;20021;-82
2023/05/27 09:46:32;;;;;;;1999.90;999.90;;;34.30;94.80;;;;;;5072279;28;20391;-73
2023/05/27 09:48:59;;;;;;;1999.90;999.90;;;33.90;94.60;;;;;;5072181;28;20032;-83
2023/05/27 09:51:26;;;;;;;1999.90;999.90;;;33.50;95.30;;;;;;5072426;28;20024;-82
2023/05/27 09:53:55;;;;;;;1999.90;999.90;;;33.30;96.30;;;;;;5072732;28;20033;-82
2023/05/27 09:56:26;;;;;;;1999.90;999.90;;;33.80;95.40;;;;;;5072427;28;20415;-82
2023/05/27 09:58:56;;;;;;;1999.90;999.90;;;33.70;95.80;;;;;;5072220;28;20025;-73
2023/05/27 10:01:25;;;;;;;1999.90;999.90;;;34.00;95.50;;;;;;5071885;28;20501;-73
2023/05/27 10:03:51;;;;;;;1999.90;999.90;;;33.60;95.20;;;;;;5072137;28;20028;-73
2023/05/27 10:06:18;;;;;;;1999.90;999.90;;;34.30;95.20;;;;;;5072147;28;20039;-82
2023/05/27 10:08:44;;;;;;;1999.90;999.90;;;34.30;95.30;;;;;;5073283;28;20428;-82
2023/05/27 10:11:13;;;;;;;1999.90;999.90;;;34.00;94.70;;;;;;5076124;28;20039;-81
2023/05/27 10:13:39;;;;;;;1999.90;999.90;;;34.00;94.60;;;;;;5075888;28;20024;-73
2023/05/27 10:16:05;;;;;;;1999.90;999.90;;;34.20;95.10;;;;;;5072176;28;20024;-83
2023/05/27 10:18:33;;;;;;;1999.90;999.90;;;33.90;95.40;;;;;;5056124;28;20109;-81
2023/05/27 10:21:00;;;;;;;1999.90;999.90;;;34.30;95.50;;;;;;5055788;28;20079;-73
2023/05/27 10:23:31;;;;;;;1999.90;999.90;;;34.80;95.50;;;;;;5055942;28;20024;-83
2023/05/27 10:26:02;;;;;;;1999.90;999.90;;;34.40;94.40;;;;;;5054494;28;20025;-72
2023/05/27 10:28:33;;;;;;;1999.90;999.90;;;34.30;94.40;;;;;;5056057;28;20057;-73
2023/05/27 10:31:10;;;;;;;1999.90;999.90;;;34.30;95.00;;;;;;5055618;28;20052;-73
2023/05/27 10:33:44;;;;;;;1999.90;999.90;;;34.30;94.20;;;;;;5055823;28;20020;-83
2023/05/27 10:36:15;;;;;;;1999.90;999.90;;;34.10;94.30;;;;;;5055504;28;20025;-81
2023/05/27 10:39:04;;;;;;;1999.90;999.90;;;34.50;94.30;;;;;;5053999;28;20451;-73
2023/05/27 10:41:40;;;;;;;1999.90;999.90;;;34.10;94.60;;;;;;5054104;28;20075;-73
2023/05/27 10:44:05;;;;;;;1999.90;999.90;;;34.00;93.80;;;;;;5055483;28;20025;-82
2023/05/27 10:46:40;;;;;;;1999.90;999.90;;;34.40;93.50;;;;;;5055439;28;20472;-72
2023/05/27 10:49:10;;;;;;;1999.90;999.90;;;34.50;93.70;;;;;;5055253;28;20428;-82
2023/05/27 10:51:36;;;;;;;1999.90;999.90;;;35.20;92.90;;;;;;5055054;28;20031;-73
2023/05/27 10:54:06;;;;;;;1999.90;999.90;;;35.40;92.50;;;;;;5055515;28;20472;-72
2023/05/27 10:56:32;;;;;;;1999.90;999.90;;;35.10;93.20;;;;;;5055202;28;20021;-73
2023/05/27 10:59:02;;;;;;;1999.90;999.90;;;35.10;93.10;;;;;;5055351;28;20076;-72
2023/05/27 11:01:31;;;;;;;1999.90;999.90;;;35.00;93.20;;;;;;5055122;28;20024;-73
2023/05/27 11:03:58;;;;;;;1999.90;999.90;;;34.70;92.60;;;;;;5067320;28;20426;-73
2023/05/27 11:06:24;;;;;;;1999.90;999.90;;;34.30;93.10;;;;;;5074916;28;20017;-72
2023/05/27 11:08:50;;;;;;;1999.90;999.90;;;34.00;93.40;;;;;;5074637;28;20048;-72
2023/05/27 11:11:16;;;;;;;1999.90;999.90;;;34.20;93.00;;;;;;5075110;28;20400;-73
2023/05/27 11:13:44;;;;;;;1999.90;999.90;;;34.60;92.80;;;;;;5074575;28;20055;-73
2023/05/27 11:16:10;;;;;;;1999.90;999.90;;;35.00;93.00;;;;;;5072570;28;20043;-83
2023/05/27 11:18:41;;;;;;;1999.90;999.90;;;35.00;92.10;;;;;;5073174;28;20445;-73
2023/05/27 11:21:08;;;;;;;1999.90;999.90;;;35.00;91.50;;;;;;5074612;28;20027;-82
2023/05/27 11:23:43;;;;;;;1999.90;999.90;;;35.60;91.00;;;;;;5074607;28;20021;-81
2023/05/27 11:26:19;;;;;;;1999.90;999.90;;;35.50;91.20;;;;;;5074738;28;20029;-83
2023/05/27 11:28:57;;;;;;;1999.90;999.90;;;35.50;90.20;;;;;;5074508;28;20107;-82
2023/05/27 11:31:30;;;;;;;1999.90;999.90;;;35.60;90.70;;;;;;5074785;28;20535;-73
2023/05/27 11:33:56;;;;;;;1999.90;999.90;;;35.40;90.80;;;;;;5074205;28;20550;-72
2023/05/27 11:36:27;;;;;;;1999.90;999.90;;;35.50;91.60;;;;;;5074298;28;20108;-83
2023/05/27 11:38:59;;;;;;;1999.90;999.90;;;35.30;90.40;;;;;;5074243;28;20021;-82
2023/05/27 11:41:28;;;;;;;1999.90;999.90;;;35.00;90.80;;;;;;5074338;28;20017;-82
2023/05/27 11:44:04;;;;;;;1999.90;999.90;;;35.00;91.40;;;;;;5073986;28;20020;-73
2023/05/27 11:46:43;;;;;;;1999.90;999.90;;;34.70;91.10;;;;;;5073827;28;20020;-73
2023/05/27 11:49:11;;;;;;;1999.90;999.90;;;34.50;89.90;;;;;;5056073;28;20474;-72
2023/05/27 11:51:38;;;;;;;1999.90;999.90;;;34.90;91.30;;;;;;5074125;28;20016;-82
2023/05/27 11:54:04;;;;;;;1999.90;999.90;;;34.70;91.50;;;;;;5074494;28;20364;-73
2023/05/27 11:56:30;;;;;;;1999.90;999.90;;;34.60;91.30;;;;;;5074094;28;20036;-72
2023/05/27 11:58:57;;;;;;;1999.90;999.90;;;34.70;91.40;;;;;;5073658;28;20028;-73